KSLG/SLG METAR and TAF weather

Enter ICAO airport designator
Station Type Date Time Source
KSLG METAR 2019/04/25 15:56 UTC NOAA

KSLG 251556Z AUTO 34010KT 10SM BKN009 OVC015 16/13 A2981 RMK AO2 CIG 008V012 SLP089 T01560133 PNO $


Station Type Date Time Source
KSLG Decoded METAR 2019/04/25 15:56 UTC NOAA

Siloam Springs, Smith Field Airport, AR, United States (KSLG) 36-12N 094-29W
Apr 25, 2019 - 11:56 AM EDT / 2019.04.25 1556 UTC
Wind: from the NNW (340 degrees) at 12 MPH (10 KT):0
Visibility: 10 mile(s):0
Sky conditions: overcast
Temperature: 60.1 F (15.6 C)
Dew Point: 55.9 F (13.3 C)
Relative Humidity: 86%
Pressure (altimeter): 29.81 in. Hg (1009 hPa)
ob: KSLG 251556Z AUTO 34010KT 10SM BKN009 OVC015 16/13 A2981 RMK AO2 CIG 008V012 SLP089 T01560133 PNO
cycle: 16

Station Type Date Time Source
KSLG TAF UTC NOAA

Error!

Example: see airport list